Latest Weather Observations for Tocal

IDN60801

Issued at 2:32 pm EST Monday 3 August 2015 (issued every 30 minutes, with the page automatically refreshed every 10 minutes)

About weather observations | Map of weather stations | Latest weather observations for NSW | Other Formats
Station Details ID: 061250 Name: TOCAL AWS Lat: -32.63 Lon: 151.59 Height: 30.0 m
Data from the previous 72 hours. | See also: Recent months at Tocal
Date/Time
EST
Temp
°C
App
Temp
°C
Dew
Point
Rel
Hum
%
Delta-T
°C
Wind Press
QNH
hPa
Press
MSL
hPa
Rain
since 9 am
mm
Dir
 
Spd
km/h
Gust
km/h
Spd
kts
Gust
kts
03/02:30pm 17.6 11.5 0.1 30 7.6 WNW 22 35 12 19 - - 0.0
03/02:00pm 18.0 11.9 0.1 30 7.8 NW 22 33 12 18 - - 0.0
03/01:30pm 17.9 10.7 0.6 31 7.6 NW 28 48 15 26 - - 0.0
03/01:25pm 18.2 11.0 0.5 30 7.8 NW 28 46 15 25 - - 0.0
03/01:24pm 18.2 11.0 0.5 30 7.8 NW 28 46 15 25 - - 0.0
03/01:00pm 17.6 10.8 0.8 32 7.4 NW 26 41 14 22 - - 0.0
03/12:35pm 17.2 9.9 0.1 31 7.4 NW 28 48 15 26 - - 0.0
03/12:30pm 17.1 10.6 0.6 32 7.2 NW 24 48 13 26 - - 0.0
03/12:00pm 16.7 9.9 0.6 33 7.0 NW 26 37 14 20 - - 0.0
03/11:30am 16.6 9.7 0.1 32 7.1 NW 26 41 14 22 - - 0.0
03/11:00am 15.6 9.8 0.1 34 6.6 WNW 20 35 11 19 - - 0.0
03/10:30am 14.8 8.2 -0.5 35 6.4 WNW 24 41 13 22 - - 0.0
03/10:00am 14.4 8.9 0.5 38 5.9 NW 19 30 10 16 - - 0.0
03/09:30am 13.1 7.9 0.1 41 5.4 W 17 33 9 18 - - 0.0
03/09:00am 13.6 10.6 9.3 75 2.2 WSW 15 30 8 16 - - 0.0
03/08:30am 12.4 6.7 2.6 51 4.3 W 22 37 12 20 - - 0.0
03/08:00am 11.8 5.8 3.5 57 3.7 W 24 33 13 18 - - 0.0
03/07:30am 11.5 7.0 4.4 61 3.2 W 17 30 9 16 - - 0.0
03/07:00am 11.5 6.7 4.4 61 3.2 W 19 30 10 16 - - 0.0
03/06:30am 12.2 7.9 5.3 62 3.2 W 17 26 9 14 - - 0.0
03/06:00am 13.2 8.6 5.8 61 3.5 W 19 28 10 15 - - 0.0
03/05:30am 14.2 10.3 5.5 56 4.1 W 15 26 8 14 - - 0.0
03/05:00am 14.5 12.5 6.2 57 4.0 ENE 6 11 3 6 - - 0.0
03/04:30am 15.4 11.3 6.1 54 4.5 WNW 17 28 9 15 - - 0.0
03/04:00am 16.1 11.7 6.5 53 4.7 WNW 19 32 10 17 - - 0.0
03/03:30am 17.2 12.7 5.9 47 5.5 WNW 19 28 10 15 - - 0.0
03/03:00am 17.9 13.1 5.8 45 5.9 NW 20 33 11 18 - - 0.0
03/02:30am 18.7 14.5 5.9 43 6.3 WNW 17 32 9 17 - - 0.0
03/02:00am 19.3 14.0 6.8 44 6.3 NW 24 37 13 20 - - 0.0
03/01:30am 20.2 15.3 7.0 42 6.7 NW 22 39 12 21 - - 0.0
03/01:00am 19.5 14.5 8.1 47 5.9 NW 24 33 13 18 - - 0.0
03/12:30am 20.5 15.9 8.0 44 6.5 NW 22 37 12 20 - - 0.0
03/12:00am 20.2 16.3 8.5 47 6.1 WNW 19 30 10 16 - - 0.0
 
Date/Time
EST
Temp
°C
App
Temp
°C
Dew
Point
Rel
Hum
%
Delta-T
°C
Wind Press
QNH
hPa
Press
MSL
hPa
Rain
since 9 am
mm
Dir
 
Spd
km/h
Gust
km/h
Spd
kts
Gust
kts
02/11:30pm 19.4 14.9 8.4 49 5.7 W 22 35 12 19 - - 0.0
02/11:00pm 22.0 18.1 7.3 38 7.6 WNW 17 32 9 17 - - 0.0
02/10:30pm 22.1 17.7 7.2 38 7.7 NW 20 35 11 19 - - 0.0
02/10:00pm 22.2 17.3 7.1 37 7.8 NW 22 30 12 16 - - 0.0
02/09:30pm 22.1 17.6 6.9 37 7.8 NW 20 30 11 16 - - 0.0
02/09:00pm 22.3 17.7 6.4 35 8.1 NW 20 32 11 17 - - 0.0
02/08:30pm 22.3 18.2 6.1 35 8.2 NW 17 26 9 14 - - 0.0
02/08:00pm 22.6 18.3 5.4 32 8.6 NW 17 24 9 13 - - 0.0
02/07:30pm 22.9 18.2 5.1 31 8.9 NW 19 32 10 17 - - 0.0
02/07:00pm 23.1 18.3 4.8 30 9.1 NNW 19 32 10 17 - - 0.0
02/06:30pm 23.3 18.0 4.8 30 9.2 NW 22 37 12 20 - - 0.0
02/06:00pm 23.2 18.8 5.0 30 9.1 NW 17 30 9 16 - - 0.0
02/05:37pm 24.1 17.5 4.0 27 9.9 NW 28 46 15 25 - - 0.0
02/05:30pm 24.1 18.2 3.7 26 10.0 NW 24 41 13 22 - - 0.0
02/05:00pm 24.3 17.6 3.7 26 10.1 NW 28 41 15 22 - - 0.0
02/04:30pm 24.8 18.8 3.3 24 10.5 NW 24 41 13 22 - - 0.0
02/04:00pm 25.0 19.0 3.4 24 10.6 NW 24 39 13 21 - - 0.0
02/03:50pm 25.4 18.6 3.1 23 10.9 NW 28 54 15 29 - - 0.0
02/03:30pm 25.5 19.6 3.7 24 10.8 NW 24 56 13 30 - - 0.0
02/03:00pm 26.5 18.1 1.8 20 11.9 NW 35 59 19 32 - - 0.0
02/02:33pm 26.7 17.5 1.4 19 12.1 NNW 39 59 21 32 - - 0.0
02/02:32pm 26.7 17.5 1.4 19 12.1 NNW 39 59 21 32 - - 0.0
02/02:30pm 27.0 18.3 2.1 20 12.1 NNW 37 54 20 29 - - 0.0
02/02:01pm 27.2 19.4 1.4 18 12.4 NW 32 52 17 28 - - 0.0
02/02:00pm 27.2 19.2 1.4 18 12.4 NW 33 56 18 30 - - 0.0
02/01:36pm 27.1 19.3 1.5 19 12.3 NW 32 50 17 27 - - 0.0
02/01:35pm 27.1 19.3 1.5 19 12.3 NW 32 50 17 27 - - 0.0
02/01:30pm 27.2 19.4 1.8 19 12.3 NNW 32 44 17 24 - - 0.0
02/01:00pm 27.1 19.2 0.8 18 12.5 NNW 32 57 17 31 - - 0.0
02/12:30pm 27.2 19.7 1.4 18 12.4 NNW 30 52 16 28 - - 0.0
02/12:26pm 27.4 20.1 2.2 19 12.3 NNW 30 50 16 27 - - 0.0
02/12:25pm 27.4 20.1 2.2 19 12.3 NNW 30 50 16 27 - - 0.0
02/12:08pm 26.8 19.8 2.0 20 12.0 NNW 28 37 15 20 - - 0.0
02/12:00pm 25.1 22.5 6.1 29 9.8 S 9 26 5 14 - - 0.0
02/11:30am 20.9 18.5 8.5 45 6.5 SSE 11 13 6 7 - - 0.0
02/11:00am 19.2 17.0 7.9 48 5.8 S 9 13 5 7 - - 0.0
02/10:30am 18.3 16.6 7.7 50 5.4 E 6 11 3 6 - - 0.0
02/10:00am 16.9 15.4 8.3 57 4.4 SE 6 7 3 4 - - 0.0
02/09:30am 15.1 13.5 8.6 65 3.3 ESE 7 11 4 6 - - 0.0
02/09:00am 13.2 10.8 7.0 66 3.0 E 9 13 5 7 - - 0.0
02/08:30am 11.6 9.2 7.0 73 2.2 SSW 9 13 5 7 - - 0.0
02/08:00am 9.7 8.9 6.7 81 1.4 CALM 0 0 0 0 - - 0.0
02/07:30am 6.5 5.5 5.6 94 0.4 CALM 0 0 0 0 - - 0.0
02/07:00am 6.5 5.5 5.6 94 0.4 CALM 0 0 0 0 - - 0.0
02/06:30am 6.5 5.5 5.6 94 0.4 CALM 0 6 0 3 - - 0.0
02/06:00am 6.5 5.5 5.4 93 0.5 CALM 0 0 0 0 - - 0.0
02/05:30am 6.7 5.7 5.6 93 0.5 CALM 0 0 0 0 - - 0.0
02/05:00am 7.2 6.3 5.9 91 0.6 CALM 0 0 0 0 - - 0.0
02/04:30am 7.0 6.1 5.9 93 0.5 CALM 0 0 0 0 - - 0.0
02/04:00am 7.7 5.6 5.9 88 0.8 NW 6 7 3 4 - - 0.0
02/03:30am 8.3 7.5 6.3 87 0.9 CALM 0 0 0 0 - - 0.0
02/03:00am 8.5 7.7 6.3 86 1.0 CALM 0 0 0 0 - - 0.0
02/02:30am 8.5 7.3 6.3 86 1.0 WNW 2 7 1 4 - - 0.0
02/02:00am 10.7 9.8 6.2 74 2.1 CALM 0 0 0 0 - - 0.0
02/01:30am 9.8 9.0 6.6 80 1.5 CALM 0 0 0 0 - - 0.0
02/01:00am 9.6 7.7 6.8 83 1.3 NW 6 7 3 4 - - 0.0
02/12:30am 10.3 9.5 6.5 77 1.8 CALM 0 0 0 0 - - 0.0
02/12:00am 11.6 10.8 6.5 71 2.4 CALM 0 0 0 0 - - 0.0
 
Date/Time
EST
Temp
°C
App
Temp
°C
Dew
Point
Rel
Hum
%
Delta-T
°C
Wind Press
QNH
hPa
Press
MSL
hPa
Rain
since 9 am
mm
Dir
 
Spd
km/h
Gust
km/h
Spd
kts
Gust
kts
01/11:30pm 11.5 10.7 6.4 71 2.4 CALM 0 0 0 0 - - 0.0
01/11:00pm 11.9 11.1 6.4 69 2.6 CALM 0 0 0 0 - - 0.0
01/10:30pm 13.2 12.5 6.8 65 3.1 CALM 0 0 0 0 - - 0.0
01/10:00pm 14.1 13.2 5.9 57 3.9 CALM 0 0 0 0 - - 0.0
01/09:30pm 14.0 13.3 6.8 62 3.5 CALM 0 0 0 0 - - 0.0
01/09:00pm 14.4 13.4 5.8 56 4.1 CALM 0 0 0 0 - - 0.0
01/08:30pm 13.5 10.9 6.2 61 3.5 NNW 9 13 5 7 - - 0.0
01/08:00pm 15.1 14.2 6.2 55 4.3 CALM 0 0 0 0 - - 0.0
01/07:30pm 16.2 13.8 5.3 48 5.2 W 7 7 4 4 - - 0.0
01/07:00pm 17.3 14.7 4.4 42 6.1 NW 7 9 4 5 - - 0.0
01/06:30pm 18.4 15.8 4.3 39 6.7 NW 7 9 4 5 - - 0.0
01/06:00pm 19.4 16.2 3.2 34 7.6 N 9 13 5 7 - - 0.0
01/05:30pm 18.2 15.1 5.5 43 6.2 NNW 11 13 6 7 - - 0.0
01/05:00pm 20.2 16.8 3.9 34 7.8 NW 11 15 6 8 - - 0.0
01/04:30pm 21.1 17.5 3.2 30 8.5 NW 11 19 6 10 - - 0.0
01/04:00pm 22.2 17.4 2.5 27 9.3 NW 17 28 9 15 - - 0.0
01/03:30pm 22.7 17.9 2.8 27 9.5 WNW 17 28 9 15 - - 0.0
01/03:00pm 22.9 18.3 3.8 28 9.3 WNW 17 30 9 16 - - 0.0
01/02:30pm 21.9 17.8 4.3 31 8.6 W 15 26 8 14 - - 0.0
01/02:00pm 22.5 17.1 4.7 31 8.8 WNW 22 35 12 19 - - 0.0
01/01:30pm 23.2 18.1 4.0 28 9.4 WNW 20 35 11 19 - - 0.0
01/01:00pm 22.9 18.7 3.8 28 9.3 NW 15 28 8 15 - - 0.0
01/12:30pm 22.4 17.5 4.2 30 8.9 NNW 19 26 10 14 - - 0.0
01/12:00pm 19.9 17.4 6.6 42 6.7 NE 9 15 5 8 - - 0.0
01/11:30am 17.8 15.7 6.8 48 5.5 NNE 7 11 4 6 - - 0.0
01/11:00am 15.8 13.3 6.4 53 4.6 N 9 13 5 7 - - 0.0
01/10:30am 14.6 13.1 6.6 58 3.9 S 4 9 2 5 - - 0.0
01/10:00am 13.3 11.0 5.9 61 3.5 ENE 7 9 4 5 - - 0.0
01/09:30am 10.9 8.7 6.2 73 2.2 ENE 7 9 4 5 - - 0.0
01/09:00am 9.3 7.5 5.6 78 1.7 ENE 4 9 2 5 - - 0.0
01/08:30am 8.1 7.1 5.4 83 1.2 CALM 0 0 0 0 - - 0.0
01/08:00am 5.8 4.6 4.4 91 0.6 CALM 0 0 0 0 - - 0.0
01/07:30am 4.1 2.7 3.6 97 0.2 CALM 0 0 0 0 - - 0.0
01/07:00am 3.5 2.1 3.3 99 0.1 CALM 0 0 0 0 - - 0.0
01/06:30am 3.1 1.6 3.1 100 0.0 CALM 0 0 0 0 - - 0.0
01/06:00am 3.5 1.7 3.3 99 0.1 WSW 2 7 1 4 - - 0.0
01/05:30am 3.5 2.1 3.5 100 0.0 CALM 0 0 0 0 - - 0.0
01/05:00am 3.7 1.2 3.5 99 0.1 W 6 7 3 4 - - 0.0
01/04:30am 3.7 1.2 3.5 99 0.1 NW 6 7 3 4 - - 0.0
01/04:00am 5.0 2.6 4.1 94 0.4 WSW 6 9 3 5 - - 0.0
01/03:30am 5.4 4.1 4.2 92 0.5 CALM 0 0 0 0 - - 0.0
01/03:00am 5.4 3.7 4.2 92 0.5 W 2 6 1 3 - - 0.0
01/02:30am 5.8 4.5 4.2 89 0.7 CALM 0 0 0 0 - - 0.0
01/02:00am 5.0 3.4 4.3 95 0.3 NW 2 6 1 3 - - 0.0
01/01:30am 5.6 3.5 3.9 89 0.7 W 4 7 2 4 - - 0.0
01/01:00am 5.7 3.3 4.1 89 0.7 N 6 7 3 4 - - 0.0
01/12:30am 7.3 4.8 4.8 84 1.1 WSW 7 9 4 5 - - 0.0
01/12:00am 7.2 6.0 4.4 82 1.2 CALM 0 0 0 0 - - 0.0
 
Date/Time
EST
Temp
°C
App
Temp
°C
Dew
Point
Rel
Hum
%
Delta-T
°C
Wind Press
QNH
hPa
Press
MSL
hPa
Rain
since 9 am
mm
Dir
 
Spd
km/h
Gust
km/h
Spd
kts
Gust
kts
31/11:30pm 6.6 5.0 4.5 86 0.9 NW 2 6 1 3 - - 0.0
31/11:00pm 6.9 5.4 4.8 86 0.9 W 2 7 1 4 - - 0.0
31/10:30pm 8.0 6.8 4.8 80 1.4 CALM 0 7 0 4 - - 0.0
31/10:00pm 8.6 7.4 4.8 77 1.7 CALM 0 0 0 0 - - 0.0
31/09:30pm 7.9 6.8 5.2 83 1.2 CALM 0 0 0 0 - - 0.0
31/09:00pm 8.8 7.7 5.2 78 1.6 CALM 0 0 0 0 - - 0.0
31/08:30pm 9.2 8.1 5.0 75 1.9 CALM 0 0 0 0 - - 0.0
31/08:00pm 8.9 6.7 5.4 79 1.6 WNW 6 9 3 5 - - 0.0
31/07:30pm 10.4 8.6 5.4 71 2.3 NW 4 7 2 4 - - 0.0
31/07:00pm 11.9 10.8 4.9 62 3.2 CALM 0 0 0 0 - - 0.0
31/06:30pm 11.6 9.5 5.8 67 2.7 NW 6 9 3 5 - - 0.0
31/06:00pm 14.5 13.4 4.9 52 4.5 CALM 0 0 0 0 - - 0.0
31/05:30pm 15.1 13.1 4.6 49 4.9 N 4 7 2 4 - - 0.0
31/05:00pm 17.2 14.6 4.3 42 6.1 WSW 7 11 4 6 - - 0.0
31/04:30pm 18.2 15.2 4.0 39 6.7 W 9 15 5 8 - - 0.0
31/04:00pm 19.4 15.4 2.9 33 7.7 W 13 17 7 9 - - 0.0
31/03:30pm 19.6 15.2 2.6 32 7.9 W 15 26 8 14 - - 0.0
31/03:00pm 19.4 14.6 2.6 32 7.8 W 17 28 9 15 - - 0.0

Other Formats:

Comma delimited format used in spreadsheet applications
http://www.bom.gov.au/fwo/IDN60801/IDN60801.94775.axf

JavaScript Object Notation format (JSON) in row-major order
http://www.bom.gov.au/fwo/IDN60801/IDN60801.94775.json